createdAt,value
2022-10-18T00:00:38.960Z,79.66
2022-10-18T00:01:40.749Z,79.98
2022-10-18T00:02:42.689Z,80.89
2022-10-18T00:03:44.477Z,80.76
2022-10-18T00:04:46.904Z,80.35
2022-10-18T00:05:49.445Z,80.51
2022-10-18T00:06:51.272Z,80.55
2022-10-18T00:07:53.159Z,79.93
2022-10-18T00:08:55.019Z,80.33
2022-10-18T00:09:56.799Z,80.60
2022-10-18T00:10:58.596Z,80.79
2022-10-18T00:12:00.989Z,80.94
2022-10-18T00:13:02.795Z,80.59
2022-10-18T00:14:04.932Z,80.21
2022-10-18T00:15:07.694Z,80.50
2022-10-18T00:16:14.267Z,80.53
2022-10-18T00:17:16.105Z,80.75
2022-10-18T00:18:18.352Z,80.52
2022-10-18T00:19:20.130Z,80.00
2022-10-18T00:20:21.947Z,80.61
2022-10-18T00:21:24.564Z,79.97
2022-10-18T00:22:26.406Z,80.72
2022-10-18T00:23:28.905Z,80.57
2022-10-18T00:24:30.677Z,80.15
2022-10-18T00:25:32.437Z,80.09
2022-10-18T00:26:34.198Z,80.13
2022-10-18T00:27:36.198Z,80.08
2022-10-18T00:28:39.515Z,79.89
2022-10-18T00:29:41.309Z,80.50
2022-10-18T00:30:43.157Z,80.51
2022-10-18T00:31:45.472Z,80.08
2022-10-18T00:32:47.322Z,80.00
2022-10-18T00:33:53.530Z,80.21
2022-10-18T00:34:55.325Z,80.29
2022-10-18T00:36:00.401Z,80.50
2022-10-18T00:37:02.196Z,80.73
2022-10-18T00:38:04.028Z,80.96
2022-10-18T00:39:07.248Z,81.22
2022-10-18T00:40:09.293Z,81.22
2022-10-18T00:41:12.298Z,81.59
2022-10-18T00:42:17.096Z,82.00
2022-10-18T00:43:19.039Z,81.89
2022-10-18T00:44:26.637Z,82.21
2022-10-18T00:45:28.491Z,81.84
2022-10-18T00:46:31.885Z,82.14
2022-10-18T00:47:35.050Z,81.87
2022-10-18T00:48:36.804Z,82.11
2022-10-18T00:49:44.162Z,81.84
2022-10-18T00:50:47.383Z,81.86
2022-10-18T00:51:56.918Z,81.01
2022-10-18T00:53:01.824Z,81.17
2022-10-18T00:54:03.849Z,81.58
2022-10-18T00:55:06.738Z,81.48
2022-10-18T00:56:08.574Z,81.72
2022-10-18T00:57:10.763Z,81.10
2022-10-18T00:58:14.118Z,80.88
2022-10-18T00:59:17.622Z,81.21
2022-10-18T01:00:19.878Z,80.69
2022-10-18T01:01:24.462Z,81.34
2022-10-18T01:02:29.685Z,81.45
2022-10-18T01:03:32.003Z,81.22
2022-10-18T01:04:33.912Z,81.16
2022-10-18T01:05:41.910Z,81.66
2022-10-18T01:08:21.094Z,81.67
2022-10-18T01:09:48.905Z,81.22
2022-10-18T01:11:14.015Z,81.40
2022-10-18T01:12:38.890Z,81.50
2022-10-18T01:13:48.280Z,81.43
2022-10-18T01:15:02.195Z,81.51
2022-10-18T01:16:11.078Z,81.55
2022-10-18T01:17:20.135Z,81.16
2022-10-18T01:18:21.838Z,81.42
2022-10-18T01:19:23.537Z,81.44
2022-10-18T01:20:34.718Z,81.63
2022-10-18T01:21:43.112Z,81.54
2022-10-18T01:23:00.619Z,81.12
2022-10-18T01:24:14.537Z,81.04
2022-10-18T01:25:39.824Z,81.62
2022-10-18T01:27:00.051Z,81.18
2022-10-18T01:28:19.944Z,81.30
2022-10-18T01:29:40.233Z,81.38
2022-10-18T01:31:00.564Z,81.57
2022-10-18T01:32:07.997Z,81.73
2022-10-18T01:33:09.781Z,81.66
2022-10-18T01:34:13.263Z,81.47
2022-10-18T01:35:18.319Z,81.26
2022-10-18T01:36:26.329Z,81.42
2022-10-18T01:37:29.646Z,81.60
2022-10-18T01:38:33.072Z,81.23
2022-10-18T01:39:37.172Z,81.66
2022-10-18T01:40:41.397Z,82.28
2022-10-18T01:41:44.832Z,81.70
2022-10-18T01:42:47.848Z,82.41
2022-10-18T01:43:52.243Z,82.61
2022-10-18T01:44:55.155Z,82.58
2022-10-18T01:45:58.410Z,82.36
2022-10-18T01:47:00.856Z,82.00
2022-10-18T01:48:03.385Z,81.74
2022-10-18T01:49:05.390Z,82.12
2022-10-18T01:50:07.453Z,81.69
2022-10-18T01:51:09.293Z,81.79
2022-10-18T01:52:15.128Z,81.93
2022-10-18T01:53:24.452Z,81.84
2022-10-18T01:54:37.830Z,81.88
2022-10-18T01:55:39.512Z,81.39
2022-10-18T01:56:47.373Z,81.87
2022-10-18T01:58:09.378Z,81.14
2022-10-18T01:59:43.740Z,81.12
2022-10-18T02:00:48.282Z,81.36
2022-10-18T02:01:55.923Z,81.05
2022-10-18T02:03:04.681Z,81.17
2022-10-18T02:04:24.875Z,80.90
2022-10-18T02:05:29.424Z,81.32
2022-10-18T02:06:35.666Z,81.09
2022-10-18T02:07:40.821Z,81.25
2022-10-18T02:08:45.619Z,81.45
2022-10-18T02:09:52.189Z,81.25
2022-10-18T02:11:02.918Z,81.44
2022-10-18T02:12:05.516Z,81.31
2022-10-18T02:13:07.783Z,81.60
2022-10-18T02:14:12.033Z,81.20
2022-10-18T02:15:16.411Z,81.56
2022-10-18T02:16:27.049Z,81.92
2022-10-18T02:17:30.243Z,82.34
2022-10-18T02:18:39.477Z,82.32
2022-10-18T02:19:43.795Z,81.65
2022-10-18T02:20:45.853Z,81.74
2022-10-18T02:21:48.716Z,81.55
2022-10-18T02:22:51.703Z,81.50
2022-10-18T02:23:54.150Z,82.01
2022-10-18T02:24:57.857Z,82.08
2022-10-18T02:25:59.628Z,81.92
2022-10-18T02:27:01.938Z,82.23
2022-10-18T02:28:04.656Z,82.07
2022-10-18T02:29:06.703Z,81.93
2022-10-18T02:30:09.753Z,82.12
2022-10-18T02:31:20.391Z,81.83
2022-10-18T02:32:22.183Z,82.28
2022-10-18T02:33:38.192Z,82.25
2022-10-18T02:34:42.937Z,81.86
2022-10-18T02:35:50.039Z,81.85
2022-10-18T02:36:53.848Z,81.75
2022-10-18T02:37:57.331Z,81.71
2022-10-18T02:39:03.397Z,81.56
2022-10-18T02:40:06.259Z,81.38
2022-10-18T02:41:08.285Z,81.83
2022-10-18T02:42:10.803Z,81.76
2022-10-18T02:43:14.361Z,82.25
2022-10-18T02:44:16.269Z,81.89
2022-10-18T02:45:18.298Z,82.16
2022-10-18T02:46:21.027Z,82.00
2022-10-18T02:47:22.939Z,81.87
2022-10-18T02:48:24.783Z,81.61
2022-10-18T02:49:26.614Z,81.40
2022-10-18T02:50:28.481Z,81.85
2022-10-18T02:51:30.325Z,81.84
2022-10-18T02:52:32.191Z,81.79
2022-10-18T02:53:33.955Z,81.39
2022-10-18T02:54:35.764Z,81.13
2022-10-18T02:55:37.498Z,81.11
2022-10-18T02:56:39.358Z,81.26
2022-10-18T02:57:41.111Z,81.35
2022-10-18T02:58:42.978Z,81.43
2022-10-18T02:59:44.787Z,81.32
2022-10-18T03:00:46.589Z,81.33
2022-10-18T03:01:48.661Z,81.34
2022-10-18T03:02:50.629Z,81.71
2022-10-18T03:03:52.390Z,81.45
2022-10-18T03:04:54.246Z,81.24
2022-10-18T03:05:56.034Z,81.74
2022-10-18T03:06:57.863Z,82.19
2022-10-18T03:07:59.800Z,82.14
2022-10-18T03:09:06.126Z,82.16
2022-10-18T03:10:08.093Z,82.29
2022-10-18T03:11:09.871Z,82.45
2022-10-18T03:12:11.727Z,82.38
2022-10-18T03:13:13.837Z,82.58
2022-10-18T03:14:15.754Z,82.45
2022-10-18T03:15:17.582Z,82.37
2022-10-18T03:16:19.373Z,82.09
2022-10-18T03:17:21.316Z,81.90
2022-10-18T03:18:23.201Z,81.99
2022-10-18T03:19:24.978Z,81.81
2022-10-18T03:20:26.789Z,82.52
2022-10-18T03:21:28.602Z,82.45
2022-10-18T03:22:30.423Z,82.30
2022-10-18T03:23:32.277Z,82.17
2022-10-18T03:24:34.044Z,81.80
2022-10-18T03:25:35.981Z,82.36
2022-10-18T03:26:37.824Z,82.06
2022-10-18T03:27:39.780Z,81.75
2022-10-18T03:28:41.605Z,81.76
2022-10-18T03:29:43.453Z,81.44
2022-10-18T03:30:45.316Z,81.54
2022-10-18T03:31:47.240Z,81.64
2022-10-18T03:32:48.996Z,81.49
2022-10-18T03:33:50.861Z,81.38
2022-10-18T03:34:52.639Z,81.14
2022-10-18T03:35:54.453Z,81.22
2022-10-18T03:37:00.941Z,81.46
2022-10-18T03:38:05.324Z,81.67
2022-10-18T03:39:07.216Z,81.63
2022-10-18T03:40:09.257Z,81.45
2022-10-18T03:41:11.035Z,81.75
2022-10-18T03:42:12.812Z,81.69
2022-10-18T03:43:14.624Z,81.95
2022-10-18T03:44:16.457Z,81.98
2022-10-18T03:45:18.215Z,81.47
2022-10-18T03:46:19.978Z,81.55
2022-10-18T03:47:21.803Z,81.68
2022-10-18T03:48:24.152Z,81.88
2022-10-18T03:49:26.055Z,81.89
2022-10-18T03:50:27.797Z,82.13
2022-10-18T03:51:29.591Z,82.47
2022-10-18T03:52:31.689Z,82.55
2022-10-18T03:53:34.024Z,82.58
2022-10-18T03:54:35.952Z,82.17
2022-10-18T03:55:38.242Z,82.33
2022-10-18T03:56:39.992Z,82.14
2022-10-18T03:57:41.794Z,82.01
2022-10-18T03:58:43.601Z,82.05
2022-10-18T03:59:45.488Z,81.93
2022-10-18T04:00:50.217Z,81.92
2022-10-18T04:01:52.027Z,82.20
2022-10-18T04:02:55.866Z,82.44
2022-10-18T04:03:58.031Z,82.28
2022-10-18T04:04:59.882Z,82.11
2022-10-18T04:06:03.662Z,82.12
2022-10-18T04:07:05.632Z,82.08
2022-10-18T04:08:07.386Z,82.07
2022-10-18T04:09:10.285Z,81.95
2022-10-18T04:10:12.233Z,81.69
2022-10-18T04:11:14.099Z,81.75
2022-10-18T04:12:15.818Z,81.75
2022-10-18T04:13:17.624Z,81.32
2022-10-18T04:14:21.582Z,81.62
2022-10-18T04:15:23.356Z,81.26
2022-10-18T04:16:25.257Z,81.75
2022-10-18T04:17:27.018Z,81.58
2022-10-18T04:18:28.983Z,81.44
2022-10-18T04:19:30.915Z,81.60
2022-10-18T04:20:32.702Z,81.36
2022-10-18T04:21:34.459Z,81.70
2022-10-18T04:22:36.146Z,81.41
2022-10-18T04:23:38.885Z,82.03
2022-10-18T04:24:41.125Z,81.77
2022-10-18T04:26:45.776Z,81.71
2022-10-18T04:27:47.986Z,82.27
2022-10-18T04:28:49.812Z,82.13
2022-10-18T04:29:51.659Z,81.75
2022-10-18T04:30:53.490Z,81.81
2022-10-18T04:31:55.234Z,81.99
2022-10-18T04:32:57.030Z,81.49
2022-10-18T04:33:58.821Z,81.64
2022-10-18T04:35:00.760Z,81.62
2022-10-18T04:36:02.573Z,81.75
2022-10-18T04:37:04.408Z,81.97
2022-10-18T04:38:06.261Z,82.53
2022-10-18T04:39:08.135Z,82.10
2022-10-18T04:40:10.093Z,82.43
2022-10-18T04:41:11.930Z,82.64
2022-10-18T04:42:13.731Z,83.14
2022-10-18T04:43:15.746Z,82.94
2022-10-18T04:44:17.499Z,82.83
2022-10-18T04:45:19.325Z,82.51
2022-10-18T04:46:21.119Z,82.77
2022-10-18T04:47:22.972Z,82.37
2022-10-18T04:48:24.775Z,82.63
2022-10-18T04:49:26.564Z,82.78
2022-10-18T04:50:28.491Z,82.48
2022-10-18T04:51:30.615Z,82.35
2022-10-18T04:52:32.557Z,82.39
2022-10-18T04:53:34.357Z,82.21
2022-10-18T04:54:36.679Z,82.19
2022-10-18T04:55:38.555Z,82.62
2022-10-18T04:56:40.330Z,82.85
2022-10-18T04:57:42.465Z,82.79
2022-10-18T04:58:44.398Z,82.62
2022-10-18T04:59:46.301Z,82.58
2022-10-18T05:00:48.239Z,82.49
2022-10-18T05:01:50.146Z,82.16
2022-10-18T05:02:56.612Z,82.13
2022-10-18T05:03:58.437Z,82.22
2022-10-18T05:05:00.291Z,81.75
2022-10-18T05:06:03.278Z,81.65
2022-10-18T05:07:06.914Z,82.03
2022-10-18T05:08:09.050Z,81.65
2022-10-18T05:09:10.921Z,82.13
2022-10-18T05:10:12.694Z,82.29
2022-10-18T05:11:14.784Z,82.85
2022-10-18T05:12:16.611Z,82.70
2022-10-18T05:13:18.367Z,82.55
2022-10-18T05:14:20.197Z,82.56
2022-10-18T05:15:22.002Z,83.03
2022-10-18T05:16:23.943Z,83.58
2022-10-18T05:17:25.733Z,84.41
2022-10-18T05:18:27.697Z,84.09
2022-10-18T05:19:29.520Z,84.37
2022-10-18T05:20:31.330Z,83.86
2022-10-18T05:21:33.598Z,83.80
2022-10-18T05:22:35.440Z,83.63
2022-10-18T05:23:37.252Z,83.18
2022-10-18T05:24:39.046Z,83.26
2022-10-18T05:25:41.605Z,83.31
2022-10-18T05:26:43.470Z,83.39
2022-10-18T05:27:45.249Z,83.26
2022-10-18T05:28:47.069Z,83.28
2022-10-18T05:29:48.955Z,82.75
2022-10-18T05:30:50.721Z,82.84
2022-10-18T05:31:52.602Z,83.32
2022-10-18T05:32:54.406Z,83.08
2022-10-18T05:33:56.225Z,82.88
2022-10-18T05:34:57.972Z,82.88
2022-10-18T05:35:59.887Z,82.97
2022-10-18T05:37:01.750Z,83.24
2022-10-18T05:38:06.942Z,82.83
2022-10-18T05:39:08.684Z,83.22
2022-10-18T05:40:10.785Z,82.99
2022-10-18T05:41:13.183Z,83.10
2022-10-18T05:42:15.073Z,83.03
2022-10-18T05:43:18.022Z,83.03
2022-10-18T05:44:19.948Z,83.08
2022-10-18T05:45:21.856Z,83.18
2022-10-18T05:46:23.645Z,82.79
2022-10-18T05:47:25.755Z,83.18
2022-10-18T05:48:27.548Z,83.62
2022-10-18T05:49:29.410Z,83.57
2022-10-18T05:50:35.424Z,84.47
2022-10-18T05:51:39.899Z,84.71
2022-10-18T05:52:41.765Z,84.77
2022-10-18T05:53:44.582Z,85.58
2022-10-18T05:54:46.428Z,85.62
2022-10-18T05:55:48.223Z,85.12
2022-10-18T05:56:50.061Z,84.79
2022-10-18T05:57:52.251Z,85.33
2022-10-18T05:58:54.124Z,85.14
2022-10-18T05:59:55.903Z,85.54
2022-10-18T06:01:01.792Z,85.85
2022-10-18T06:02:03.636Z,86.28
2022-10-18T06:03:05.568Z,86.08
2022-10-18T06:04:07.887Z,85.92
2022-10-18T06:05:09.734Z,85.56
2022-10-18T06:06:12.450Z,85.81
2022-10-18T06:07:14.233Z,86.05
2022-10-18T06:08:16.069Z,86.35
2022-10-18T06:09:18.001Z,86.42
2022-10-18T06:10:19.914Z,86.29
2022-10-18T06:11:21.742Z,86.23
2022-10-18T06:12:23.547Z,86.07
2022-10-18T06:13:25.462Z,86.25
2022-10-18T06:14:27.334Z,86.60
2022-10-18T06:15:29.135Z,86.72
2022-10-18T06:16:32.556Z,86.86
2022-10-18T06:17:35.109Z,86.98
2022-10-18T06:18:37.362Z,86.87
2022-10-18T06:19:39.137Z,86.61
2022-10-18T06:20:40.927Z,86.37
2022-10-18T06:21:43.732Z,86.61
2022-10-18T06:22:45.537Z,86.62
2022-10-18T06:23:54.740Z,86.95
2022-10-18T06:24:57.366Z,86.75
2022-10-18T06:26:03.399Z,86.58
2022-10-18T06:27:09.241Z,86.35
2022-10-18T06:28:12.177Z,86.40
2022-10-18T06:29:14.428Z,86.54
2022-10-18T06:30:16.552Z,86.46
2022-10-18T06:31:18.681Z,86.68
2022-10-18T06:32:20.477Z,86.49
2022-10-18T06:33:22.370Z,87.19
2022-10-18T06:34:24.254Z,87.43
2022-10-18T06:35:26.100Z,86.89
2022-10-18T06:36:28.084Z,87.11
2022-10-18T06:37:31.379Z,87.97
2022-10-18T06:38:33.757Z,88.01
2022-10-18T06:39:35.608Z,87.53
2022-10-18T06:40:38.387Z,88.07
2022-10-18T06:41:40.190Z,88.04
2022-10-18T06:42:43.598Z,87.70
2022-10-18T06:43:50.406Z,87.68
2022-10-18T06:44:52.218Z,87.63
2022-10-18T06:45:54.457Z,87.82
2022-10-18T06:46:56.357Z,87.39
2022-10-18T06:47:58.809Z,87.31
2022-10-18T06:49:00.625Z,87.34
2022-10-18T06:50:02.436Z,86.82
2022-10-18T06:51:06.413Z,86.91
2022-10-18T06:52:08.180Z,87.73
2022-10-18T06:53:10.194Z,87.38
2022-10-18T06:54:17.859Z,87.46
2022-10-18T06:55:20.419Z,86.91
2022-10-18T06:56:22.222Z,87.31
2022-10-18T06:57:24.062Z,87.28
2022-10-18T06:58:25.940Z,87.24
2022-10-18T06:59:31.098Z,87.62
2022-10-18T07:00:33.387Z,87.16
2022-10-18T07:01:35.242Z,86.91
2022-10-18T07:02:38.047Z,86.76
2022-10-18T07:03:40.331Z,87.08
2022-10-18T07:04:42.053Z,86.85
2022-10-18T07:05:44.007Z,86.63
2022-10-18T07:06:45.780Z,86.42
2022-10-18T07:07:47.591Z,86.08
2022-10-18T07:08:50.571Z,85.93
2022-10-18T07:09:52.340Z,86.24
2022-10-18T07:10:54.372Z,85.71
2022-10-18T07:11:56.103Z,85.83
2022-10-18T07:13:13.538Z,85.95
2022-10-18T07:14:19.678Z,85.88
2022-10-18T07:15:24.338Z,85.95
2022-10-18T07:16:26.146Z,86.11
2022-10-18T07:17:28.153Z,86.12
2022-10-18T07:18:30.031Z,86.11
2022-10-18T07:19:31.831Z,86.12
2022-10-18T07:20:33.836Z,86.19
2022-10-18T07:21:35.635Z,86.35
2022-10-18T07:22:38.425Z,86.26
2022-10-18T07:23:41.194Z,86.06
2022-10-18T07:24:43.883Z,85.97
2022-10-18T07:25:45.684Z,85.75
2022-10-18T07:26:47.559Z,86.20
2022-10-18T07:27:49.318Z,86.08
2022-10-18T07:28:54.482Z,86.52
2022-10-18T07:29:56.300Z,86.07
2022-10-18T07:31:01.302Z,86.32
2022-10-18T07:32:07.065Z,86.31
2022-10-18T07:33:08.878Z,86.35
2022-10-18T07:34:11.797Z,85.74
2022-10-18T07:35:13.704Z,86.18
2022-10-18T07:36:15.619Z,85.68
2022-10-18T07:37:17.428Z,86.17
2022-10-18T07:38:19.210Z,86.62
2022-10-18T07:39:21.102Z,86.25
2022-10-18T07:40:22.932Z,86.46
2022-10-18T07:41:24.788Z,86.45
2022-10-18T07:42:26.780Z,86.01
2022-10-18T07:43:29.404Z,86.12
2022-10-18T07:44:31.234Z,86.40
2022-10-18T07:45:33.020Z,86.63
2022-10-18T07:46:34.889Z,87.10
2022-10-18T07:47:37.191Z,86.81
2022-10-18T07:48:39.517Z,87.45
2022-10-18T07:49:41.362Z,86.86
2022-10-18T07:50:43.116Z,86.57
2022-10-18T07:51:44.976Z,86.17
2022-10-18T07:52:46.773Z,85.91
2022-10-18T07:53:48.676Z,86.04
2022-10-18T07:55:58.154Z,85.67
2022-10-18T07:56:59.922Z,85.49
2022-10-18T07:58:01.824Z,85.51
2022-10-18T07:59:03.669Z,86.09
2022-10-18T08:00:05.875Z,86.16
2022-10-18T08:01:08.658Z,87.19
2022-10-18T08:02:10.500Z,86.90
2022-10-18T08:03:12.331Z,86.78
2022-10-18T08:04:16.340Z,86.19
2022-10-18T08:05:18.678Z,86.17
2022-10-18T08:06:21.790Z,85.92
2022-10-18T08:07:23.620Z,85.82
2022-10-18T08:08:26.302Z,87.55
2022-10-18T08:09:28.066Z,87.76
2022-10-18T08:10:29.885Z,87.61
2022-10-18T08:11:31.758Z,87.16
2022-10-18T08:12:33.674Z,86.64
2022-10-18T08:13:35.757Z,86.10
2022-10-18T08:14:37.586Z,85.91
2022-10-18T08:15:39.344Z,85.69
2022-10-18T08:16:41.132Z,85.66
2022-10-18T08:17:44.616Z,85.10
2022-10-18T08:18:46.479Z,85.00
2022-10-18T08:19:58.494Z,85.03
2022-10-18T08:21:11.739Z,84.99
2022-10-18T08:22:13.516Z,85.20
2022-10-18T08:23:15.279Z,86.51
2022-10-18T08:24:17.105Z,87.01
2022-10-18T08:25:18.918Z,86.81
2022-10-18T08:26:22.514Z,87.51
2022-10-18T08:27:26.481Z,87.63
2022-10-18T08:28:28.318Z,87.07
2022-10-18T08:29:32.036Z,86.51
2022-10-18T08:30:35.305Z,87.41
2022-10-18T08:31:37.566Z,87.43
2022-10-18T08:32:39.386Z,87.06
2022-10-18T08:33:41.390Z,86.53
2022-10-18T08:34:43.253Z,86.28
2022-10-18T08:35:54.437Z,85.52
2022-10-18T08:36:56.178Z,85.65
2022-10-18T08:37:57.955Z,85.86
2022-10-18T08:38:59.778Z,84.97
2022-10-18T08:40:01.628Z,84.92
2022-10-18T08:41:15.357Z,85.22
2022-10-18T08:42:23.225Z,85.38
2022-10-18T08:43:43.680Z,84.77
2022-10-18T08:44:47.572Z,84.06
2022-10-18T08:45:50.220Z,84.26
2022-10-18T08:47:15.383Z,83.52
2022-10-18T08:48:22.213Z,84.03
2022-10-18T08:49:46.529Z,83.97
2022-10-18T08:50:50.181Z,84.01
2022-10-18T08:51:52.396Z,85.03
2022-10-18T08:52:54.158Z,84.50
2022-10-18T08:53:58.881Z,85.02
2022-10-18T08:55:02.772Z,84.38
2022-10-18T08:56:11.579Z,84.18
2022-10-18T08:57:15.119Z,83.63
2022-10-18T08:58:21.736Z,83.50
2022-10-18T08:59:25.536Z,82.22
2022-10-18T09:00:30.860Z,81.69
2022-10-18T09:01:35.776Z,81.73
2022-10-18T09:02:55.640Z,81.71
2022-10-18T09:04:03.531Z,81.86
2022-10-18T09:05:17.497Z,78.36
2022-10-18T09:06:37.614Z,79.10
2022-10-18T09:07:39.337Z,79.01
2022-10-18T09:08:50.416Z,78.84
2022-10-18T09:09:54.951Z,79.20
2022-10-18T09:11:05.798Z,79.71
2022-10-18T09:12:26.236Z,79.51
2022-10-18T09:13:33.819Z,80.55
2022-10-18T09:14:38.511Z,78.75
2022-10-18T09:15:57.386Z,78.67
2022-10-18T09:17:34.680Z,78.78
2022-10-18T09:18:42.092Z,77.38
2022-10-18T09:19:56.050Z,76.81
2022-10-18T09:20:59.035Z,77.66
2022-10-18T09:22:14.260Z,75.87
2022-10-18T09:23:21.291Z,76.18
2022-10-18T09:24:37.233Z,76.37
2022-10-18T09:25:45.599Z,75.53
2022-10-18T09:26:48.614Z,76.01
2022-10-18T09:27:52.878Z,73.83
2022-10-18T09:28:54.692Z,72.54
2022-10-18T09:30:08.259Z,73.33
2022-10-18T09:31:10.030Z,74.30
2022-10-18T09:32:21.691Z,74.90
2022-10-18T09:33:30.711Z,75.53
2022-10-18T09:34:37.938Z,73.76
2022-10-18T09:35:57.182Z,75.16
2022-10-18T09:36:59.410Z,74.31
2022-10-18T09:38:06.056Z,73.94
2022-10-18T09:39:16.024Z,74.72
2022-10-18T09:40:26.294Z,74.72
2022-10-18T09:41:31.003Z,71.96
2022-10-18T09:42:41.927Z,71.36
2022-10-18T09:44:02.287Z,72.44
2022-10-18T09:45:13.681Z,71.99
2022-10-18T09:46:17.362Z,72.14
2022-10-18T09:47:33.023Z,70.46
2022-10-18T09:48:39.238Z,69.06
2022-10-18T09:49:43.998Z,69.91
2022-10-18T09:50:49.172Z,69.19
2022-10-18T09:51:52.782Z,68.89
2022-10-18T09:53:09.904Z,68.97
2022-10-18T09:54:21.025Z,69.87
2022-10-18T09:55:24.971Z,69.31
2022-10-18T09:56:30.089Z,69.36
2022-10-18T09:57:32.066Z,69.43
2022-10-18T09:58:47.834Z,69.23
2022-10-18T09:59:50.668Z,68.14
2022-10-18T10:00:53.341Z,69.06
2022-10-18T10:01:55.265Z,68.54
2022-10-18T10:02:57.850Z,68.18
2022-10-18T10:03:59.735Z,67.46
2022-10-18T10:05:01.546Z,67.83
2022-10-18T10:06:12.179Z,68.66
2022-10-18T10:07:21.605Z,68.38
2022-10-18T10:08:32.348Z,66.37
2022-10-18T10:09:41.935Z,65.68
2022-10-18T10:10:47.457Z,67.51
2022-10-18T10:11:50.999Z,68.15
2022-10-18T10:13:06.446Z,67.21
2022-10-18T10:14:09.856Z,65.46
2022-10-18T10:15:23.088Z,66.63
2022-10-18T10:16:26.872Z,66.74
2022-10-18T10:17:31.564Z,67.36
2022-10-18T10:18:39.170Z,67.65
2022-10-18T10:19:56.835Z,68.61
2022-10-18T10:21:00.551Z,65.28
2022-10-18T10:22:04.288Z,65.86
2022-10-18T10:23:29.108Z,65.47
2022-10-18T10:24:49.819Z,66.30
2022-10-18T10:25:54.938Z,64.15
2022-10-18T10:27:00.736Z,65.32
2022-10-18T10:28:04.097Z,66.53
2022-10-18T10:29:43.508Z,66.86
2022-10-18T10:30:46.567Z,65.74
2022-10-18T10:32:01.764Z,63.62
2022-10-18T10:33:04.170Z,64.46
2022-10-18T10:34:14.823Z,64.51
2022-10-18T10:35:41.543Z,63.81
2022-10-18T10:36:53.853Z,61.04
2022-10-18T10:37:56.031Z,62.33
2022-10-18T10:39:04.233Z,63.27
2022-10-18T10:40:17.789Z,63.74
2022-10-18T10:41:21.887Z,63.57
2022-10-18T10:42:23.710Z,63.29
2022-10-18T10:43:39.777Z,63.94
2022-10-18T10:44:50.910Z,62.70
2022-10-18T10:46:13.300Z,62.15
2022-10-18T10:47:28.564Z,61.92
2022-10-18T10:48:34.638Z,62.56
2022-10-18T10:49:41.083Z,64.33
2022-10-18T10:50:54.342Z,61.95
2022-10-18T10:52:08.741Z,62.79
2022-10-18T10:53:26.856Z,61.07
2022-10-18T10:54:29.731Z,61.49
2022-10-18T10:55:35.722Z,60.54
2022-10-18T10:56:50.460Z,61.96
2022-10-18T10:57:52.943Z,61.33
2022-10-18T10:58:55.805Z,62.05
2022-10-18T11:00:00.122Z,61.74
2022-10-18T11:01:17.466Z,62.22
2022-10-18T11:02:24.065Z,60.65
2022-10-18T11:03:30.068Z,61.31
2022-10-18T11:04:32.301Z,62.26
2022-10-18T11:05:42.596Z,61.32
2022-10-18T11:07:04.661Z,61.72
2022-10-18T11:08:06.522Z,61.17
2022-10-18T11:09:18.403Z,61.48
2022-10-18T11:10:23.162Z,60.01
2022-10-18T11:11:35.514Z,59.94
2022-10-18T11:12:44.267Z,59.51
2022-10-18T11:13:57.043Z,59.59
2022-10-18T11:15:17.507Z,59.49
2022-10-18T11:16:26.684Z,58.09
2022-10-18T11:17:28.644Z,58.53
2022-10-18T11:18:32.707Z,59.80
2022-10-18T11:19:45.994Z,57.17
2022-10-18T11:20:49.851Z,58.38
2022-10-18T11:21:53.071Z,57.72
2022-10-18T11:23:02.665Z,58.86
2022-10-18T11:24:07.960Z,59.64
2022-10-18T11:25:13.397Z,57.22
2022-10-18T11:26:24.168Z,58.24
2022-10-18T11:27:32.896Z,56.89
2022-10-18T11:28:53.524Z,57.87
2022-10-18T11:30:14.768Z,57.45
2022-10-18T11:31:16.510Z,58.21
2022-10-18T11:32:38.480Z,57.29
2022-10-18T11:34:09.363Z,56.79
2022-10-18T11:35:35.867Z,55.35
2022-10-18T11:36:58.006Z,57.17
2022-10-18T11:38:33.202Z,57.34
2022-10-18T11:39:57.738Z,55.87
2022-10-18T11:41:05.428Z,56.88
2022-10-18T11:42:19.859Z,55.50
2022-10-18T11:44:00.689Z,56.33
2022-10-18T11:45:08.739Z,56.83
2022-10-18T11:46:28.308Z,56.88
2022-10-18T11:47:55.701Z,54.80
2022-10-18T11:49:18.044Z,54.88
2022-10-18T11:50:19.864Z,55.30
2022-10-18T11:51:44.522Z,56.15
2022-10-18T11:52:55.409Z,53.57
2022-10-18T11:54:00.109Z,55.46
2022-10-18T11:55:22.167Z,54.84
2022-10-18T11:56:27.081Z,53.61
2022-10-18T11:57:49.607Z,54.77
2022-10-18T11:58:54.353Z,54.24
2022-10-18T12:00:16.427Z,55.11
2022-10-18T12:01:33.243Z,54.56
2022-10-18T12:02:48.443Z,54.76
2022-10-18T12:03:56.377Z,52.32
2022-10-18T12:06:24.337Z,53.45
2022-10-18T12:07:32.498Z,53.51
2022-10-18T12:08:46.590Z,54.31
2022-10-18T12:09:49.925Z,54.78
2022-10-18T12:11:04.713Z,55.14
2022-10-18T12:12:28.442Z,53.79
2022-10-18T12:13:35.427Z,54.80
2022-10-18T12:14:40.953Z,54.64
2022-10-18T12:15:42.911Z,54.80
2022-10-18T12:16:51.584Z,54.90
2022-10-18T12:17:58.951Z,55.02
2022-10-18T12:19:03.224Z,54.56
2022-10-18T12:20:08.223Z,53.71
2022-10-18T12:21:13.079Z,53.55
2022-10-18T12:22:19.067Z,54.78
2022-10-18T12:23:26.444Z,52.50
2022-10-18T12:24:30.420Z,53.43
2022-10-18T12:25:37.090Z,53.76
2022-10-18T12:26:39.092Z,53.68
2022-10-18T12:27:45.658Z,53.32
2022-10-18T12:28:57.203Z,52.53
2022-10-18T12:30:15.027Z,53.06
2022-10-18T12:31:16.760Z,54.02
2022-10-18T12:32:30.327Z,53.10
2022-10-18T12:33:36.260Z,52.12
2022-10-18T12:34:47.097Z,52.62
2022-10-18T12:35:48.764Z,53.71
2022-10-18T12:36:53.406Z,54.57
2022-10-18T12:38:00.119Z,54.16
2022-10-18T12:39:03.536Z,53.82
2022-10-18T12:40:14.225Z,54.03
2022-10-18T12:41:37.140Z,53.64
2022-10-18T12:42:43.697Z,52.43
2022-10-18T12:43:51.247Z,52.56
2022-10-18T12:45:04.390Z,53.46
2022-10-18T12:46:13.029Z,53.58
2022-10-18T12:47:23.364Z,53.36
2022-10-18T12:48:28.390Z,53.94
2022-10-18T12:49:30.203Z,53.93
2022-10-18T12:50:31.987Z,53.74
2022-10-18T12:51:33.842Z,53.24
2022-10-18T12:52:37.500Z,51.79
2022-10-18T12:53:40.075Z,52.79
2022-10-18T12:55:00.491Z,53.00
2022-10-18T12:56:23.169Z,51.07
2022-10-18T12:57:46.957Z,52.23
2022-10-18T12:58:48.724Z,52.10
2022-10-18T12:59:50.652Z,52.54
2022-10-18T13:00:53.259Z,52.01
2022-10-18T13:01:55.147Z,52.86
2022-10-18T13:03:18.509Z,52.64
2022-10-18T13:04:29.713Z,52.42
2022-10-18T13:05:54.534Z,52.52
2022-10-18T13:07:16.297Z,52.71
2022-10-18T13:08:40.110Z,53.30
2022-10-18T13:09:44.891Z,53.16
2022-10-18T13:10:46.714Z,52.21
2022-10-18T13:11:48.999Z,50.71
2022-10-18T13:12:59.118Z,51.12
2022-10-18T13:14:00.953Z,52.08
2022-10-18T13:15:24.324Z,51.14
2022-10-18T13:16:38.988Z,52.33
2022-10-18T13:17:59.256Z,51.72
2022-10-18T13:19:09.334Z,51.84
2022-10-18T13:20:26.107Z,51.73
2022-10-18T13:21:40.977Z,51.00
2022-10-18T13:23:01.403Z,51.11
2022-10-18T13:24:05.991Z,51.62
2022-10-18T13:25:30.145Z,51.50
2022-10-18T13:26:42.410Z,52.20
2022-10-18T13:27:57.087Z,52.24
2022-10-18T13:29:14.271Z,52.41
2022-10-18T13:30:18.910Z,51.17
2022-10-18T13:31:29.257Z,51.85
2022-10-18T13:32:34.900Z,51.71
2022-10-18T13:33:41.709Z,50.91
2022-10-18T13:34:44.308Z,49.99
2022-10-18T13:35:55.724Z,50.73
2022-10-18T13:36:57.466Z,51.60
2022-10-18T13:38:00.276Z,51.05
2022-10-18T13:39:04.117Z,51.52
2022-10-18T13:40:25.126Z,50.75
2022-10-18T13:41:31.353Z,50.89
2022-10-18T13:42:36.287Z,49.99
2022-10-18T13:43:53.478Z,50.76
2022-10-18T13:44:55.356Z,50.11
2022-10-18T13:45:57.191Z,49.69
2022-10-18T13:46:59.063Z,50.57
2022-10-18T13:48:36.576Z,49.53
2022-10-18T13:49:44.204Z,50.35
2022-10-18T13:50:47.271Z,49.52
2022-10-18T13:52:07.178Z,50.22
2022-10-18T13:53:41.560Z,50.99
2022-10-18T13:54:51.349Z,49.96
2022-10-18T13:56:13.427Z,49.41
2022-10-18T13:57:30.206Z,50.00
2022-10-18T13:59:14.268Z,49.67
2022-10-18T14:00:35.202Z,49.03
2022-10-18T14:01:43.212Z,50.25
2022-10-18T14:02:57.745Z,49.85
2022-10-18T14:04:04.557Z,48.71
2022-10-18T14:05:24.525Z,49.39
2022-10-18T14:06:29.309Z,49.77
2022-10-18T14:07:32.414Z,49.64
2022-10-18T14:08:40.181Z,48.80
2022-10-18T14:09:50.993Z,50.05
2022-10-18T14:11:02.370Z,50.21
2022-10-18T14:12:23.636Z,49.69
2022-10-18T14:13:28.911Z,50.17
2022-10-18T14:14:35.491Z,50.24
2022-10-18T14:15:39.674Z,50.34